createdAt,value
2022-09-21T00:01:46.320Z,3.33
2022-09-21T00:04:31.800Z,2.20
2022-09-21T00:07:17.213Z,3.25
2022-09-21T00:10:03.200Z,2.50
2022-09-21T00:12:49.057Z,4.03
2022-09-21T00:15:34.777Z,4.18
2022-09-21T00:18:20.178Z,4.45
2022-09-21T00:21:10.869Z,3.10
2022-09-21T00:23:56.113Z,1.75
2022-09-21T00:26:41.659Z,1.98
2022-09-21T00:29:26.958Z,4.80
2022-09-21T00:32:12.683Z,2.60
2022-09-21T00:34:58.506Z,1.50
2022-09-21T00:37:44.632Z,2.30
2022-09-21T00:40:30.879Z,3.92
2022-09-21T00:43:17.249Z,3.28
2022-09-21T00:46:15.452Z,2.55
2022-09-21T00:49:00.558Z,1.85
2022-09-21T00:51:47.420Z,2.90
2022-09-21T00:54:38.157Z,1.85
2022-09-21T00:57:27.105Z,2.28
2022-09-21T01:00:12.764Z,3.83
2022-09-21T01:03:01.397Z,2.85
2022-09-21T01:05:47.307Z,3.03
2022-09-21T01:08:34.318Z,1.77
2022-09-21T01:11:22.823Z,3.53
2022-09-21T01:14:49.917Z,3.25
2022-09-21T01:17:50.314Z,4.53
2022-09-21T01:21:13.098Z,1.83
2022-09-21T01:24:19.853Z,5.30
2022-09-21T01:27:32.710Z,2.85
2022-09-21T01:30:21.328Z,3.65
2022-09-21T01:33:15.141Z,2.08
2022-09-21T01:36:07.213Z,2.90
2022-09-21T01:38:58.427Z,3.85
2022-09-21T01:41:46.087Z,4.50
2022-09-21T01:44:33.449Z,3.35
2022-09-21T01:47:19.763Z,2.17
2022-09-21T01:50:09.873Z,4.18
2022-09-21T01:56:06.048Z,3.25
2022-09-21T01:59:28.024Z,2.78
2022-09-21T02:02:19.382Z,3.13
2022-09-21T02:05:06.207Z,3.58
2022-09-21T02:07:52.997Z,2.55
2022-09-21T02:10:44.691Z,2.75
2022-09-21T02:13:41.405Z,3.75
2022-09-21T02:17:18.782Z,2.58
2022-09-21T02:20:18.447Z,2.78
2022-09-21T02:23:26.072Z,4.47
2022-09-21T02:26:22.579Z,2.92
2022-09-21T02:29:25.693Z,2.40
2022-09-21T02:32:40.078Z,3.03
2022-09-21T02:35:37.818Z,4.03
2022-09-21T02:38:30.554Z,3.15
2022-09-21T02:41:25.163Z,4.25
2022-09-21T02:44:24.841Z,3.30
2022-09-21T02:47:22.133Z,2.63
2022-09-21T02:50:15.019Z,6.20
2022-09-21T02:53:03.265Z,2.63
2022-09-21T02:55:56.185Z,4.70
2022-09-21T02:58:49.791Z,5.00
2022-09-21T03:01:35.753Z,3.03
2022-09-21T03:04:21.345Z,3.67
2022-09-21T03:07:07.967Z,2.90
2022-09-21T03:09:54.692Z,5.43
2022-09-21T03:12:40.478Z,3.50
2022-09-21T03:15:27.339Z,3.70
2022-09-21T03:18:13.020Z,3.05
2022-09-21T03:20:59.261Z,3.67
2022-09-21T03:23:44.895Z,4.15
2022-09-21T03:26:30.467Z,4.75
2022-09-21T03:29:15.961Z,3.22
2022-09-21T03:32:01.462Z,3.13
2022-09-21T03:34:47.013Z,3.00
2022-09-21T03:37:32.625Z,3.72
2022-09-21T03:40:19.500Z,4.32
2022-09-21T03:43:05.157Z,2.92
2022-09-21T03:45:50.566Z,4.72
2022-09-21T03:48:36.148Z,4.20
2022-09-21T03:51:22.339Z,3.28
2022-09-21T03:54:07.760Z,4.38
2022-09-21T03:56:53.253Z,5.88
2022-09-21T03:59:39.366Z,3.60
2022-09-21T04:02:24.918Z,4.20
2022-09-21T04:05:14.556Z,3.53
2022-09-21T04:08:01.993Z,3.97
2022-09-21T04:10:47.139Z,5.00
2022-09-21T04:13:35.197Z,6.07
2022-09-21T04:16:20.730Z,3.25
2022-09-21T04:19:06.312Z,5.07
2022-09-21T04:21:52.121Z,3.50
2022-09-21T04:24:40.887Z,4.55
2022-09-21T04:27:26.379Z,4.03
2022-09-21T04:30:16.487Z,3.42
2022-09-21T04:35:48.157Z,5.30
2022-09-21T04:38:33.667Z,5.60
2022-09-21T04:41:19.368Z,5.45
2022-09-21T04:44:04.797Z,3.40
2022-09-21T04:46:50.416Z,4.60
2022-09-21T04:49:35.972Z,3.55
2022-09-21T04:52:21.423Z,6.18
2022-09-21T04:55:08.143Z,7.50
2022-09-21T04:57:53.286Z,5.55
2022-09-21T05:00:39.189Z,6.72
2022-09-21T05:03:25.725Z,4.10
2022-09-21T05:06:13.365Z,3.85
2022-09-21T05:09:17.790Z,3.17
2022-09-21T05:12:03.499Z,4.05
2022-09-21T05:14:49.013Z,3.58
2022-09-21T05:17:34.549Z,4.00
2022-09-21T05:20:19.993Z,3.72
2022-09-21T05:23:05.657Z,3.75
2022-09-21T05:25:51.887Z,6.10
2022-09-21T05:28:40.013Z,4.60
2022-09-21T05:31:36.350Z,4.40
2022-09-21T05:34:35.615Z,4.18
2022-09-21T05:37:52.158Z,5.53
2022-09-21T05:40:37.762Z,4.45
2022-09-21T05:43:23.713Z,5.80
2022-09-21T05:46:24.931Z,5.30
2022-09-21T05:49:25.729Z,3.72
2022-09-21T05:52:50.721Z,4.72
2022-09-21T05:56:02.923Z,3.95
2022-09-21T05:58:57.247Z,5.50
2022-09-21T06:01:54.625Z,3.42
2022-09-21T06:04:40.213Z,3.60
2022-09-21T06:07:26.516Z,4.85
2022-09-21T06:10:13.727Z,3.85
2022-09-21T06:12:59.805Z,4.50
2022-09-21T06:15:45.442Z,3.70
2022-09-21T06:18:30.791Z,4.45
2022-09-21T06:21:16.170Z,4.40
2022-09-21T06:24:02.040Z,3.85
2022-09-21T06:26:47.839Z,4.68
2022-09-21T06:29:33.313Z,4.15
2022-09-21T06:32:20.768Z,3.75
2022-09-21T06:35:07.844Z,5.25
2022-09-21T06:37:57.000Z,4.93
2022-09-21T06:40:42.432Z,4.15
2022-09-21T06:43:27.869Z,3.80
2022-09-21T06:46:13.349Z,3.47
2022-09-21T06:48:58.796Z,3.63
2022-09-21T06:51:44.355Z,4.32
2022-09-21T06:54:29.844Z,4.85
2022-09-21T06:57:16.856Z,5.93
2022-09-21T07:00:02.545Z,4.47
2022-09-21T07:02:48.168Z,4.05
2022-09-21T07:05:34.321Z,5.70
2022-09-21T07:11:27.418Z,5.10
2022-09-21T07:14:12.897Z,5.70
2022-09-21T07:16:58.134Z,4.88
2022-09-21T07:19:43.551Z,5.28
2022-09-21T07:22:32.890Z,3.45
2022-09-21T07:25:18.550Z,4.28
2022-09-21T07:28:04.262Z,5.60
2022-09-21T07:30:49.922Z,5.32
2022-09-21T07:33:36.341Z,5.85
2022-09-21T07:36:22.018Z,4.75
2022-09-21T07:39:09.609Z,4.80
2022-09-21T07:41:57.456Z,6.43
2022-09-21T07:44:42.758Z,4.10
2022-09-21T07:47:28.289Z,6.40
2022-09-21T07:50:14.523Z,6.03
2022-09-21T07:53:00.704Z,5.30
2022-09-21T07:55:45.976Z,5.43
2022-09-21T07:58:50.681Z,8.40
2022-09-21T08:01:38.996Z,5.03
2022-09-21T08:04:24.287Z,5.30
2022-09-21T08:07:09.763Z,5.15
2022-09-21T08:09:55.431Z,4.55
2022-09-21T08:12:40.990Z,5.03
2022-09-21T08:15:47.637Z,4.90
2022-09-21T08:18:36.340Z,5.50
2022-09-21T08:21:22.485Z,5.60
2022-09-21T08:24:08.123Z,5.97
2022-09-21T08:26:55.614Z,5.68
2022-09-21T08:29:42.511Z,5.95
2022-09-21T08:32:50.063Z,6.18
2022-09-21T08:35:34.583Z,5.45
2022-09-21T08:38:20.591Z,5.93
2022-09-21T08:41:50.306Z,4.65
2022-09-21T08:44:43.289Z,6.32
2022-09-21T08:47:45.140Z,4.82
2022-09-21T08:50:35.572Z,4.75
2022-09-21T08:53:44.783Z,4.40
2022-09-21T08:56:47.412Z,5.53
2022-09-21T08:59:37.224Z,4.30
2022-09-21T09:03:00.815Z,4.35
2022-09-21T09:05:59.834Z,6.43
2022-09-21T09:08:55.734Z,5.72
2022-09-21T09:11:48.184Z,5.32
2022-09-21T09:14:59.622Z,3.85
2022-09-21T09:17:50.725Z,4.00
2022-09-21T09:20:38.030Z,4.20
2022-09-21T09:23:40.508Z,5.68
2022-09-21T09:26:35.473Z,3.78
2022-09-21T09:29:39.126Z,3.15
2022-09-21T09:32:32.682Z,4.18
2022-09-21T09:35:38.590Z,3.78
2022-09-21T09:38:30.935Z,2.58
2022-09-21T09:41:25.237Z,2.78
2022-09-21T09:44:38.960Z,2.17
2022-09-21T09:47:42.706Z,2.95
2022-09-21T09:50:35.074Z,3.33
2022-09-21T09:53:26.578Z,3.67
2022-09-21T09:56:14.778Z,2.65
2022-09-21T09:59:08.102Z,1.80
2022-09-21T10:02:04.679Z,3.20
2022-09-21T10:05:06.218Z,2.65
2022-09-21T10:07:52.950Z,2.40
2022-09-21T10:10:41.694Z,3.75
2022-09-21T10:13:31.378Z,2.80
2022-09-21T10:16:23.855Z,3.20
2022-09-21T10:19:23.400Z,2.45
2022-09-21T10:22:17.460Z,2.75
2022-09-21T10:25:06.049Z,2.50
2022-09-21T10:27:52.707Z,1.25
2022-09-21T10:30:38.748Z,2.17
2022-09-21T10:33:24.124Z,3.03
2022-09-21T10:36:27.879Z,1.52
2022-09-21T10:39:45.972Z,1.77
2022-09-21T10:42:41.658Z,2.03
2022-09-21T10:45:32.579Z,2.88
2022-09-21T10:48:22.428Z,3.67
2022-09-21T10:51:27.351Z,2.15
2022-09-21T10:54:17.907Z,2.17
2022-09-21T10:57:14.637Z,1.88
2022-09-21T11:00:34.796Z,1.55
2022-09-21T11:03:46.614Z,1.42
2022-09-21T11:06:44.265Z,1.90
2022-09-21T11:09:39.789Z,1.35
2022-09-21T11:13:08.266Z,1.52
2022-09-21T11:16:28.639Z,1.27
2022-09-21T11:19:21.684Z,2.15
2022-09-21T11:22:52.301Z,1.33
2022-09-21T11:25:58.155Z,1.48
2022-09-21T11:28:47.529Z,2.10
2022-09-21T11:31:54.023Z,2.03
2022-09-21T11:34:48.622Z,2.22
2022-09-21T11:37:49.267Z,1.55
2022-09-21T11:41:18.345Z,1.35
2022-09-21T11:44:24.476Z,1.40
2022-09-21T11:47:37.535Z,1.90
2022-09-21T11:50:32.053Z,1.33
2022-09-21T11:53:26.330Z,1.58
2022-09-21T11:56:34.006Z,2.13
2022-09-21T11:59:40.079Z,1.30
2022-09-21T12:02:44.473Z,1.67
2022-09-21T12:05:36.850Z,1.17
2022-09-21T12:08:32.592Z,1.42
2022-09-21T12:11:43.074Z,1.52
2022-09-21T12:17:47.125Z,1.80
2022-09-21T12:20:45.108Z,1.67
2022-09-21T12:23:59.645Z,1.90
2022-09-21T12:26:50.881Z,1.45
2022-09-21T12:29:48.123Z,1.25
2022-09-21T12:32:50.632Z,2.03
2022-09-21T12:38:58.463Z,2.72
2022-09-21T12:42:39.783Z,3.67
2022-09-21T12:45:34.723Z,1.20
2022-09-21T12:48:38.833Z,1.75
2022-09-21T12:51:36.904Z,1.70
2022-09-21T12:54:29.540Z,1.38
2022-09-21T12:58:10.832Z,1.25
2022-09-21T13:01:29.708Z,3.20
2022-09-21T13:04:38.387Z,1.52
2022-09-21T13:07:55.707Z,0.82
2022-09-21T13:10:49.212Z,1.98
2022-09-21T13:13:59.309Z,2.58
2022-09-21T13:16:44.785Z,1.20
2022-09-21T13:19:33.487Z,1.58
2022-09-21T13:22:24.420Z,1.67
2022-09-21T13:25:20.793Z,0.82
2022-09-21T13:28:09.978Z,1.27
2022-09-21T13:31:40.271Z,1.17
2022-09-21T13:34:39.043Z,3.40
2022-09-21T13:37:29.717Z,1.13
2022-09-21T13:40:16.186Z,1.50
2022-09-21T13:43:21.079Z,1.77
2022-09-21T13:46:07.042Z,1.65
2022-09-21T13:48:54.071Z,2.63
2022-09-21T13:51:54.052Z,2.03
2022-09-21T13:54:45.513Z,2.08
2022-09-21T13:57:41.026Z,1.13
2022-09-21T14:00:36.424Z,2.63
2022-09-21T14:03:32.690Z,0.68
2022-09-21T14:06:27.938Z,2.28
2022-09-21T14:09:52.337Z,3.50
2022-09-21T14:12:44.388Z,1.60
2022-09-21T14:15:38.774Z,2.97
2022-09-21T14:18:37.934Z,2.63
2022-09-21T14:21:23.885Z,1.55
2022-09-21T14:24:20.232Z,1.02
2022-09-21T14:27:45.931Z,1.38
2022-09-21T14:30:35.793Z,1.50
2022-09-21T14:33:53.688Z,1.52
2022-09-21T14:36:43.994Z,1.05
2022-09-21T14:39:33.579Z,0.98
2022-09-21T14:42:24.660Z,1.98
2022-09-21T14:45:18.070Z,1.30
2022-09-21T14:48:12.228Z,1.38
2022-09-21T14:51:11.608Z,2.28
2022-09-21T14:57:08.678Z,1.55
2022-09-21T15:00:20.883Z,1.70
2022-09-21T15:03:25.227Z,1.10
2022-09-21T15:06:47.846Z,1.50
2022-09-21T15:23:19.842Z,1.42
2022-09-21T15:26:10.049Z,1.98
2022-09-21T15:29:18.371Z,1.00
2022-09-21T15:32:05.369Z,1.90
2022-09-21T15:35:01.292Z,1.48
2022-09-21T15:37:47.280Z,1.02
2022-09-21T15:40:36.495Z,1.73
2022-09-21T15:43:21.967Z,2.33
2022-09-21T15:46:12.084Z,1.05
2022-09-21T15:49:01.573Z,1.63
2022-09-21T15:51:53.118Z,1.48
2022-09-21T15:54:42.013Z,1.23
2022-09-21T15:57:40.541Z,1.35
2022-09-21T16:00:34.209Z,1.35
2022-09-21T16:03:22.789Z,1.42
2022-09-21T16:06:38.893Z,1.88
2022-09-21T16:09:31.558Z,1.92
2022-09-21T16:12:34.128Z,1.17
2022-09-21T16:15:33.886Z,1.73
2022-09-21T16:18:35.232Z,1.20
2022-09-21T16:21:34.141Z,1.27
2022-09-21T16:24:24.883Z,1.42
2022-09-21T16:27:16.666Z,1.88
2022-09-21T16:30:02.321Z,0.70
2022-09-21T16:32:48.455Z,0.95
2022-09-21T16:35:40.106Z,1.55
2022-09-21T16:38:26.329Z,0.95
2022-09-21T16:41:11.938Z,0.90
2022-09-21T16:44:01.104Z,1.02
2022-09-21T16:46:49.818Z,3.40
2022-09-21T16:49:35.572Z,1.10
2022-09-21T16:52:24.586Z,1.27
2022-09-21T16:55:10.595Z,1.85
2022-09-21T16:57:56.236Z,2.10
2022-09-21T17:00:42.490Z,2.88
2022-09-21T17:03:30.664Z,1.02
2022-09-21T17:06:21.730Z,1.88
2022-09-21T17:09:47.829Z,1.33
2022-09-21T17:12:33.759Z,0.65
2022-09-21T17:15:20.447Z,1.38
2022-09-21T17:18:06.385Z,1.23
2022-09-21T17:20:51.489Z,1.98
2022-09-21T17:23:37.043Z,0.80
2022-09-21T17:26:22.494Z,0.88
2022-09-21T17:29:37.042Z,1.35
2022-09-21T17:32:23.708Z,1.05
2022-09-21T17:35:30.949Z,4.20
2022-09-21T17:38:16.707Z,1.13
2022-09-21T17:41:07.570Z,2.28
2022-09-21T17:44:21.051Z,2.15
2022-09-21T17:47:30.752Z,0.88
2022-09-21T17:50:26.250Z,2.30
2022-09-21T17:53:34.947Z,1.30
2022-09-21T17:56:44.308Z,4.10
2022-09-21T17:59:34.920Z,1.00
2022-09-21T18:02:25.835Z,0.80
2022-09-21T18:05:29.362Z,0.80
2022-09-21T18:08:14.926Z,0.70
2022-09-21T18:11:15.179Z,1.40
2022-09-21T18:14:21.512Z,1.33
2022-09-21T18:17:35.258Z,1.25
2022-09-21T18:20:41.106Z,2.85
2022-09-21T18:23:26.771Z,2.55
2022-09-21T18:26:17.066Z,1.77
2022-09-21T18:29:22.487Z,1.15
2022-09-21T18:32:22.379Z,0.80
2022-09-21T18:35:15.942Z,1.35
2022-09-21T18:38:27.210Z,1.17
2022-09-21T18:41:34.007Z,1.80
2022-09-21T18:44:32.409Z,2.28
2022-09-21T18:47:35.270Z,1.13
2022-09-21T18:50:31.739Z,1.40
2022-09-21T18:53:50.379Z,0.93
2022-09-21T18:56:37.825Z,1.13
2022-09-21T18:59:23.536Z,2.15
2022-09-21T19:02:18.040Z,1.05
2022-09-21T19:05:05.194Z,1.00
2022-09-21T19:08:20.461Z,1.10
2022-09-21T19:11:22.781Z,1.90
2022-09-21T19:14:26.929Z,1.02
2022-09-21T19:17:34.996Z,1.98
2022-09-21T19:20:58.876Z,1.65
2022-09-21T19:23:55.040Z,1.40
2022-09-21T19:26:46.616Z,2.17
2022-09-21T19:29:44.955Z,2.08
2022-09-21T19:32:44.590Z,1.95
2022-09-21T19:35:32.204Z,2.55
2022-09-21T19:38:18.482Z,1.55
2022-09-21T19:41:05.255Z,2.10
2022-09-21T19:44:01.186Z,2.45
2022-09-21T19:47:06.592Z,1.25
2022-09-21T19:49:54.397Z,1.58
2022-09-21T19:52:40.191Z,2.33
2022-09-21T19:55:44.635Z,1.00
2022-09-21T19:58:48.544Z,1.00
2022-09-21T20:01:37.484Z,1.67
2022-09-21T20:04:56.225Z,0.90
2022-09-21T20:08:04.310Z,1.45
2022-09-21T20:11:05.661Z,1.63
2022-09-21T20:14:06.238Z,1.70
2022-09-21T20:20:08.113Z,1.10
2022-09-21T20:22:54.847Z,2.47
2022-09-21T20:26:03.293Z,1.23
2022-09-21T20:28:48.576Z,1.77
2022-09-21T20:31:34.843Z,1.95
2022-09-21T20:34:20.918Z,0.90
2022-09-21T20:37:17.140Z,1.40
2022-09-21T20:40:02.768Z,1.25
2022-09-21T20:42:48.430Z,2.92
2022-09-21T20:45:34.032Z,1.95
2022-09-21T20:48:20.050Z,1.50
2022-09-21T20:51:06.287Z,1.17
2022-09-21T20:53:51.938Z,2.50
2022-09-21T20:56:37.523Z,1.52
2022-09-21T20:59:22.570Z,1.40
2022-09-21T21:02:14.417Z,1.73
2022-09-21T21:05:00.689Z,0.98
2022-09-21T21:07:46.906Z,1.48
2022-09-21T21:10:32.650Z,1.27
2022-09-21T21:13:17.837Z,1.88
2022-09-21T21:16:09.489Z,1.55
2022-09-21T21:18:57.032Z,1.88
2022-09-21T21:21:42.455Z,2.58
2022-09-21T21:24:43.672Z,2.63
2022-09-21T21:27:29.200Z,2.63
2022-09-21T21:30:15.492Z,1.45
2022-09-21T21:33:01.698Z,1.10
2022-09-21T21:35:47.555Z,3.22
2022-09-21T21:38:32.864Z,1.85
2022-09-21T21:41:18.256Z,1.73
2022-09-21T21:44:03.645Z,1.75
2022-09-21T21:46:51.215Z,1.50
2022-09-21T21:49:36.585Z,1.23
2022-09-21T21:52:22.096Z,3.05
2022-09-21T21:55:08.130Z,2.00
2022-09-21T21:57:53.581Z,1.92
2022-09-21T22:00:39.336Z,2.08
2022-09-21T22:03:24.559Z,2.38
2022-09-21T22:06:11.037Z,1.50
2022-09-21T22:08:57.095Z,1.40
2022-09-21T22:11:42.713Z,1.88
2022-09-21T22:14:28.239Z,1.55
2022-09-21T22:17:13.805Z,1.20
2022-09-21T22:19:59.258Z,1.63
2022-09-21T22:22:44.951Z,1.27
2022-09-21T22:25:32.163Z,2.38
2022-09-21T22:28:17.928Z,2.25
2022-09-21T22:31:07.497Z,1.50
2022-09-21T22:33:53.924Z,1.52
2022-09-21T22:36:40.563Z,1.48
2022-09-21T22:39:26.399Z,1.75
2022-09-21T22:42:11.876Z,1.63
2022-09-21T22:44:57.041Z,1.50
2022-09-21T22:47:42.680Z,2.45
2022-09-21T22:50:28.072Z,1.75
2022-09-21T22:53:13.677Z,1.40
2022-09-21T22:56:14.080Z,1.70
2022-09-21T22:59:00.974Z,1.48
2022-09-21T23:01:46.463Z,2.03
2022-09-21T23:04:32.426Z,1.25
2022-09-21T23:07:17.674Z,2.00
2022-09-21T23:10:03.321Z,2.17
2022-09-21T23:12:52.779Z,1.63
2022-09-21T23:15:38.364Z,1.35
2022-09-21T23:18:23.770Z,1.77
2022-09-21T23:21:14.739Z,1.88
2022-09-21T23:24:03.153Z,1.40
2022-09-21T23:26:49.495Z,1.42
2022-09-21T23:29:35.109Z,1.30
2022-09-21T23:32:20.896Z,1.55
2022-09-21T23:35:06.687Z,1.38
2022-09-21T23:37:52.241Z,1.65
2022-09-21T23:40:37.845Z,1.67
2022-09-21T23:43:23.278Z,1.70
2022-09-21T23:46:11.309Z,2.50
2022-09-21T23:48:58.501Z,3.03
2022-09-21T23:51:43.758Z,2.28
2022-09-21T23:54:29.245Z,3.05
2022-09-21T23:57:14.787Z,2.83
